Flugplatz Heppenheim

Für EDEP sind keine METAR/TAF Berichte vorhanden.
Es werden die Flugwettermeldungen vom Flugplatz Mannheim-City in 18 km Entfernung angezeigt.

Bericht für EDFM

vom 14.11. um 10:20 UTC

Wind 7 kt aus 120°

Sichtweite 10 km oder mehr

gute Sicht, keine Wolken < 5000 ft, keine CB, keine Wettererscheinungen (CAVOK)

Temperatur 8.0°C

Taupunkt -1.0°C

Luftfeuchtigkeit 53%

Luftdruck 1003 hPa

EDFM 141020Z 12007KT 080V160 CAVOK 08/M01 Q1003

Prognose für EDFM

vom 14.11. um 00:00 UTC

Zwischen 00:00 UTC und 00:00 UTC

Wind 4 kt aus 120°

Sichtweite 10 km oder mehr

keine signifikanten Wettererscheinungen

keine Wolken


Zwischen 00:00 und 00:00 UTC übergehend zu

Wind 5 kt aus 40°

Sichtweite 10 km oder mehr

keine signifikanten Wettererscheinungen

keine Wolken

TAF EDFM 140800Z 1409/1418 12004KT CAVOK BECMG 1415/1417 04005KT
Impressum